Terminal Aerodrome Forecast
Issued by NWS

Home | Current Version | Previous Version | Text Only | Print | Product List | Glossary On
Versions: 1 2 3 4 5 6 7 8 9 10 11 12 13 14 15 16
000
FTUS42 KTAE 020529
TAFVLD
TAF
KVLD 020529Z 0206/0306 VRB03KT P6SM SCT250
     FM021000 17004KT 4SM BR SCT004
     FM021300 18005KT P6SM SCT040
     FM022000 19008KT P6SM VCTS BKN040CB
     FM030000 00000KT P6SM OVC250=

USA.gov is the U.S. government's official web portal to all federal, state and local government web resources and services.